sensor_id;sensor_type;location;lat;lon;timestamp;P1;durP1;ratioP1;P2;durP2;ratioP2
38725;SDS011;24474;48.906;8.808;2022-11-23T00:01:13;5.03;;;2.00;;
38725;SDS011;24474;48.906;8.808;2022-11-23T00:03:47;6.22;;;2.53;;
38725;SDS011;24474;48.906;8.808;2022-11-23T00:06:14;7.95;;;2.20;;
38725;SDS011;24474;48.906;8.808;2022-11-23T00:08:40;6.63;;;2.15;;
38725;SDS011;24474;48.906;8.808;2022-11-23T00:11:06;6.25;;;1.80;;
38725;SDS011;24474;48.906;8.808;2022-11-23T00:13:32;5.93;;;2.13;;
38725;SDS011;24474;48.906;8.808;2022-11-23T00:16:28;4.68;;;1.83;;
38725;SDS011;24474;48.906;8.808;2022-11-23T00:18:55;6.53;;;1.92;;
38725;SDS011;24474;48.906;8.808;2022-11-23T00:21:26;3.67;;;1.60;;
38725;SDS011;24474;48.906;8.808;2022-11-23T00:23:53;4.13;;;1.70;;
38725;SDS011;24474;48.906;8.808;2022-11-23T00:26:19;7.13;;;1.92;;
38725;SDS011;24474;48.906;8.808;2022-11-23T00:28:45;5.35;;;2.47;;
38725;SDS011;24474;48.906;8.808;2022-11-23T00:31:15;4.90;;;2.28;;
38725;SDS011;24474;48.906;8.808;2022-11-23T00:33:47;5.90;;;2.30;;
38725;SDS011;24474;48.906;8.808;2022-11-23T00:36:14;7.35;;;2.63;;
38725;SDS011;24474;48.906;8.808;2022-11-23T00:38:40;5.82;;;2.05;;
38725;SDS011;24474;48.906;8.808;2022-11-23T00:41:09;5.40;;;1.80;;
38725;SDS011;24474;48.906;8.808;2022-11-23T00:43:37;3.63;;;1.70;;
38725;SDS011;24474;48.906;8.808;2022-11-23T00:46:03;6.68;;;2.75;;
38725;SDS011;24474;48.906;8.808;2022-11-23T00:48:31;6.45;;;2.55;;
38725;SDS011;24474;48.906;8.808;2022-11-23T00:50:56;6.28;;;2.40;;
38725;SDS011;24474;48.906;8.808;2022-11-23T00:53:24;4.32;;;1.58;;
38725;SDS011;24474;48.906;8.808;2022-11-23T00:55:53;4.47;;;1.70;;
38725;SDS011;24474;48.906;8.808;2022-11-23T00:58:21;7.82;;;2.00;;
38725;SDS011;24474;48.906;8.808;2022-11-23T01:00:58;5.68;;;1.88;;
38725;SDS011;24474;48.906;8.808;2022-11-23T01:03:27;4.55;;;1.70;;
38725;SDS011;24474;48.906;8.808;2022-11-23T01:05:53;5.82;;;1.55;;
38725;SDS011;24474;48.906;8.808;2022-11-23T01:08:19;4.55;;;1.42;;
38725;SDS011;24474;48.906;8.808;2022-11-23T01:10:46;3.58;;;1.48;;
38725;SDS011;24474;48.906;8.808;2022-11-23T01:13:11;5.95;;;1.70;;
38725;SDS011;24474;48.906;8.808;2022-11-23T01:15:37;3.53;;;1.67;;
38725;SDS011;24474;48.906;8.808;2022-11-23T01:18:04;5.70;;;1.73;;
38725;SDS011;24474;48.906;8.808;2022-11-23T01:20:33;7.60;;;1.80;;
38725;SDS011;24474;48.906;8.808;2022-11-23T01:22:58;3.83;;;1.63;;
38725;SDS011;24474;48.906;8.808;2022-11-23T01:25:24;7.03;;;1.60;;
38725;SDS011;24474;48.906;8.808;2022-11-23T01:27:51;6.82;;;1.90;;
38725;SDS011;24474;48.906;8.808;2022-11-23T01:30:18;6.78;;;1.55;;
38725;SDS011;24474;48.906;8.808;2022-11-23T01:32:43;3.53;;;1.40;;
38725;SDS011;24474;48.906;8.808;2022-11-23T01:35:09;6.93;;;1.75;;
38725;SDS011;24474;48.906;8.808;2022-11-23T01:37:34;4.28;;;1.23;;
38725;SDS011;24474;48.906;8.808;2022-11-23T01:40:00;6.53;;;1.80;;
38725;SDS011;24474;48.906;8.808;2022-11-23T01:45:32;4.95;;;1.45;;
38725;SDS011;24474;48.906;8.808;2022-11-23T01:48:10;3.78;;;1.30;;
38725;SDS011;24474;48.906;8.808;2022-11-23T01:50:40;3.97;;;1.40;;
38725;SDS011;24474;48.906;8.808;2022-11-23T01:53:07;3.63;;;1.35;;
38725;SDS011;24474;48.906;8.808;2022-11-23T01:55:33;4.78;;;1.50;;
38725;SDS011;24474;48.906;8.808;2022-11-23T01:58:01;4.97;;;1.40;;
38725;SDS011;24474;48.906;8.808;2022-11-23T02:00:27;5.88;;;1.70;;
38725;SDS011;24474;48.906;8.808;2022-11-23T02:02:54;4.80;;;1.50;;
38725;SDS011;24474;48.906;8.808;2022-11-23T02:05:24;3.42;;;1.52;;
38725;SDS011;24474;48.906;8.808;2022-11-23T02:07:54;7.72;;;2.00;;
38725;SDS011;24474;48.906;8.808;2022-11-23T02:10:22;4.80;;;1.40;;
38725;SDS011;24474;48.906;8.808;2022-11-23T02:12:47;6.30;;;1.40;;
38725;SDS011;24474;48.906;8.808;2022-11-23T02:15:13;6.20;;;1.38;;
38725;SDS011;24474;48.906;8.808;2022-11-23T02:17:40;5.38;;;1.30;;
38725;SDS011;24474;48.906;8.808;2022-11-23T02:20:10;3.08;;;1.17;;
38725;SDS011;24474;48.906;8.808;2022-11-23T02:28:07;5.88;;;1.38;;
38725;SDS011;24474;48.906;8.808;2022-11-23T02:30:50;5.25;;;1.40;;
38725;SDS011;24474;48.906;8.808;2022-11-23T02:33:18;4.05;;;1.17;;
38725;SDS011;24474;48.906;8.808;2022-11-23T02:35:49;5.93;;;1.73;;
38725;SDS011;24474;48.906;8.808;2022-11-23T02:38:17;4.95;;;1.40;;
38725;SDS011;24474;48.906;8.808;2022-11-23T02:40:44;4.22;;;1.48;;
38725;SDS011;24474;48.906;8.808;2022-11-23T02:43:10;6.55;;;1.77;;
38725;SDS011;24474;48.906;8.808;2022-11-23T02:45:37;3.60;;;1.25;;
38725;SDS011;24474;48.906;8.808;2022-11-23T02:48:17;5.80;;;1.38;;
38725;SDS011;24474;48.906;8.808;2022-11-23T02:50:43;5.43;;;1.48;;
38725;SDS011;24474;48.906;8.808;2022-11-23T02:53:10;3.17;;;1.30;;
38725;SDS011;24474;48.906;8.808;2022-11-23T02:55:38;5.65;;;1.45;;
38725;SDS011;24474;48.906;8.808;2022-11-23T02:58:05;2.40;;;1.40;;
38725;SDS011;24474;48.906;8.808;2022-11-23T03:00:31;7.20;;;2.25;;
38725;SDS011;24474;48.906;8.808;2022-11-23T03:02:59;6.07;;;1.90;;
38725;SDS011;24474;48.906;8.808;2022-11-23T03:05:25;7.97;;;2.25;;
38725;SDS011;24474;48.906;8.808;2022-11-23T03:07:51;7.28;;;2.47;;
38725;SDS011;24474;48.906;8.808;2022-11-23T03:10:19;5.32;;;1.85;;
38725;SDS011;24474;48.906;8.808;2022-11-23T03:12:46;4.40;;;1.70;;
38725;SDS011;24474;48.906;8.808;2022-11-23T03:15:13;4.38;;;1.77;;
38725;SDS011;24474;48.906;8.808;2022-11-23T03:17:38;4.57;;;1.60;;
38725;SDS011;24474;48.906;8.808;2022-11-23T03:20:05;6.50;;;1.80;;
38725;SDS011;24474;48.906;8.808;2022-11-23T03:22:32;4.60;;;1.55;;
38725;SDS011;24474;48.906;8.808;2022-11-23T03:24:58;6.43;;;1.80;;
38725;SDS011;24474;48.906;8.808;2022-11-23T03:27:25;5.15;;;1.75;;
38725;SDS011;24474;48.906;8.808;2022-11-23T03:29:51;3.38;;;1.30;;
38725;SDS011;24474;48.906;8.808;2022-11-23T03:32:18;5.40;;;1.58;;
38725;SDS011;24474;48.906;8.808;2022-11-23T03:34:44;6.15;;;1.70;;
38725;SDS011;24474;48.906;8.808;2022-11-23T03:37:09;5.07;;;1.60;;
38725;SDS011;24474;48.906;8.808;2022-11-23T03:39:36;4.00;;;1.70;;
38725;SDS011;24474;48.906;8.808;2022-11-23T03:42:02;3.50;;;1.65;;
38725;SDS011;24474;48.906;8.808;2022-11-23T03:44:29;4.60;;;1.80;;
38725;SDS011;24474;48.906;8.808;2022-11-23T03:46:55;5.45;;;1.67;;
38725;SDS011;24474;48.906;8.808;2022-11-23T03:49:21;3.55;;;1.50;;
38725;SDS011;24474;48.906;8.808;2022-11-23T03:51:46;2.38;;;1.10;;
38725;SDS011;24474;48.906;8.808;2022-11-23T03:54:12;6.32;;;2.08;;
38725;SDS011;24474;48.906;8.808;2022-11-23T03:56:38;6.72;;;2.05;;
38725;SDS011;24474;48.906;8.808;2022-11-23T03:59:03;4.35;;;2.05;;
38725;SDS011;24474;48.906;8.808;2022-11-23T04:01:30;5.80;;;2.00;;
38725;SDS011;24474;48.906;8.808;2022-11-23T04:03:55;5.82;;;2.10;;
38725;SDS011;24474;48.906;8.808;2022-11-23T04:06:21;5.70;;;1.75;;
38725;SDS011;24474;48.906;8.808;2022-11-23T04:08:47;5.10;;;1.90;;
38725;SDS011;24474;48.906;8.808;2022-11-23T04:11:14;7.25;;;2.05;;
38725;SDS011;24474;48.906;8.808;2022-11-23T04:13:41;6.90;;;2.00;;
38725;SDS011;24474;48.906;8.808;2022-11-23T04:16:08;4.82;;;2.20;;
38725;SDS011;24474;48.906;8.808;2022-11-23T04:18:34;5.60;;;1.88;;
38725;SDS011;24474;48.906;8.808;2022-11-23T04:21:01;4.85;;;1.95;;
38725;SDS011;24474;48.906;8.808;2022-11-23T04:23:27;6.75;;;2.08;;
38725;SDS011;24474;48.906;8.808;2022-11-23T04:25:52;3.65;;;1.55;;
38725;SDS011;24474;48.906;8.808;2022-11-23T04:28:18;4.93;;;2.10;;
38725;SDS011;24474;48.906;8.808;2022-11-23T04:30:44;4.88;;;1.63;;
38725;SDS011;24474;48.906;8.808;2022-11-23T04:33:10;3.50;;;1.30;;
38725;SDS011;24474;48.906;8.808;2022-11-23T04:35:35;5.47;;;1.70;;
38725;SDS011;24474;48.906;8.808;2022-11-23T04:38:02;4.97;;;1.98;;
38725;SDS011;24474;48.906;8.808;2022-11-23T04:40:30;6.03;;;1.73;;
38725;SDS011;24474;48.906;8.808;2022-11-23T04:42:56;3.55;;;1.90;;
38725;SDS011;24474;48.906;8.808;2022-11-23T04:45:23;5.82;;;2.08;;
38725;SDS011;24474;48.906;8.808;2022-11-23T04:47:48;5.35;;;1.90;;
38725;SDS011;24474;48.906;8.808;2022-11-23T04:50:15;4.13;;;1.60;;
38725;SDS011;24474;48.906;8.808;2022-11-23T04:52:41;3.63;;;1.58;;
38725;SDS011;24474;48.906;8.808;2022-11-23T04:55:08;3.58;;;1.50;;
38725;SDS011;24474;48.906;8.808;2022-11-23T04:57:36;6.80;;;1.80;;
38725;SDS011;24474;48.906;8.808;2022-11-23T05:00:03;5.53;;;1.55;;
38725;SDS011;24474;48.906;8.808;2022-11-23T05:02:29;4.63;;;1.58;;
38725;SDS011;24474;48.906;8.808;2022-11-23T05:04:55;6.35;;;2.00;;
38725;SDS011;24474;48.906;8.808;2022-11-23T05:07:22;7.07;;;2.22;;
38725;SDS011;24474;48.906;8.808;2022-11-23T05:09:48;4.95;;;2.10;;
38725;SDS011;24474;48.906;8.808;2022-11-23T05:12:15;4.65;;;1.88;;
38725;SDS011;24474;48.906;8.808;2022-11-23T05:14:41;5.45;;;2.20;;
38725;SDS011;24474;48.906;8.808;2022-11-23T05:17:07;7.10;;;1.98;;
38725;SDS011;24474;48.906;8.808;2022-11-23T05:19:32;5.65;;;2.13;;
38725;SDS011;24474;48.906;8.808;2022-11-23T05:21:58;6.43;;;2.50;;
38725;SDS011;24474;48.906;8.808;2022-11-23T05:24:24;9.00;;;3.30;;
38725;SDS011;24474;48.906;8.808;2022-11-23T05:26:50;5.75;;;2.78;;
38725;SDS011;24474;48.906;8.808;2022-11-23T05:29:15;6.93;;;2.47;;
38725;SDS011;24474;48.906;8.808;2022-11-23T05:31:41;8.13;;;2.72;;
38725;SDS011;24474;48.906;8.808;2022-11-23T05:34:06;8.18;;;2.63;;
38725;SDS011;24474;48.906;8.808;2022-11-23T05:36:33;7.30;;;2.90;;
38725;SDS011;24474;48.906;8.808;2022-11-23T05:38:59;7.88;;;3.30;;
38725;SDS011;24474;48.906;8.808;2022-11-23T05:41:24;6.30;;;2.60;;
38725;SDS011;24474;48.906;8.808;2022-11-23T05:43:51;6.45;;;2.10;;
38725;SDS011;24474;48.906;8.808;2022-11-23T05:46:18;6.32;;;2.67;;
38725;SDS011;24474;48.906;8.808;2022-11-23T05:48:43;7.00;;;2.28;;
38725;SDS011;24474;48.906;8.808;2022-11-23T05:51:10;5.07;;;2.30;;
38725;SDS011;24474;48.906;8.808;2022-11-23T05:53:36;4.63;;;1.70;;
38725;SDS011;24474;48.906;8.808;2022-11-23T05:56:01;6.90;;;2.20;;
38725;SDS011;24474;48.906;8.808;2022-11-23T05:58:27;7.13;;;2.33;;
38725;SDS011;24474;48.906;8.808;2022-11-23T06:00:59;8.43;;;2.40;;
38725;SDS011;24474;48.906;8.808;2022-11-23T06:03:25;5.90;;;1.77;;
38725;SDS011;24474;48.906;8.808;2022-11-23T06:05:51;7.20;;;1.60;;
38725;SDS011;24474;48.906;8.808;2022-11-23T06:08:17;5.78;;;2.05;;
38725;SDS011;24474;48.906;8.808;2022-11-23T06:10:42;6.05;;;2.08;;
38725;SDS011;24474;48.906;8.808;2022-11-23T06:13:08;5.90;;;1.92;;
38725;SDS011;24474;48.906;8.808;2022-11-23T06:15:34;5.63;;;1.63;;
38725;SDS011;24474;48.906;8.808;2022-11-23T06:18:00;5.07;;;1.67;;
38725;SDS011;24474;48.906;8.808;2022-11-23T06:20:27;6.68;;;1.73;;
38725;SDS011;24474;48.906;8.808;2022-11-23T06:22:53;6.22;;;1.75;;
38725;SDS011;24474;48.906;8.808;2022-11-23T06:25:19;5.03;;;1.67;;
38725;SDS011;24474;48.906;8.808;2022-11-23T06:27:56;9.45;;;2.15;;
38725;SDS011;24474;48.906;8.808;2022-11-23T06:30:24;5.18;;;1.95;;
38725;SDS011;24474;48.906;8.808;2022-11-23T06:32:51;5.45;;;1.98;;
38725;SDS011;24474;48.906;8.808;2022-11-23T06:35:16;7.40;;;1.92;;
38725;SDS011;24474;48.906;8.808;2022-11-23T06:37:42;7.43;;;1.83;;
38725;SDS011;24474;48.906;8.808;2022-11-23T06:40:09;8.60;;;2.25;;
38725;SDS011;24474;48.906;8.808;2022-11-23T06:42:36;5.75;;;1.63;;
38725;SDS011;24474;48.906;8.808;2022-11-23T06:45:02;7.57;;;2.03;;
38725;SDS011;24474;48.906;8.808;2022-11-23T06:47:28;9.95;;;1.95;;
38725;SDS011;24474;48.906;8.808;2022-11-23T06:49:54;6.95;;;2.00;;
38725;SDS011;24474;48.906;8.808;2022-11-23T06:52:19;8.68;;;2.25;;
38725;SDS011;24474;48.906;8.808;2022-11-23T06:54:45;5.80;;;1.83;;
38725;SDS011;24474;48.906;8.808;2022-11-23T06:57:11;7.28;;;1.98;;
38725;SDS011;24474;48.906;8.808;2022-11-23T06:59:36;8.65;;;2.15;;
38725;SDS011;24474;48.906;8.808;2022-11-23T07:02:02;7.07;;;2.58;;
38725;SDS011;24474;48.906;8.808;2022-11-23T07:04:28;6.78;;;1.92;;
38725;SDS011;24474;48.906;8.808;2022-11-23T07:06:53;7.82;;;1.95;;
38725;SDS011;24474;48.906;8.808;2022-11-23T07:09:19;6.65;;;2.05;;
38725;SDS011;24474;48.906;8.808;2022-11-23T07:11:45;6.93;;;2.50;;
38725;SDS011;24474;48.906;8.808;2022-11-23T07:14:10;8.02;;;2.05;;
38725;SDS011;24474;48.906;8.808;2022-11-23T07:16:36;9.82;;;1.85;;
38725;SDS011;24474;48.906;8.808;2022-11-23T07:19:02;6.47;;;2.00;;
38725;SDS011;24474;48.906;8.808;2022-11-23T07:21:27;3.88;;;1.63;;
38725;SDS011;24474;48.906;8.808;2022-11-23T07:23:53;11.80;;;1.85;;
38725;SDS011;24474;48.906;8.808;2022-11-23T07:26:19;6.53;;;1.90;;
38725;SDS011;24474;48.906;8.808;2022-11-23T07:28:45;9.00;;;1.90;;
38725;SDS011;24474;48.906;8.808;2022-11-23T07:31:10;7.35;;;1.63;;
38725;SDS011;24474;48.906;8.808;2022-11-23T07:33:41;6.95;;;1.98;;
38725;SDS011;24474;48.906;8.808;2022-11-23T07:36:09;8.43;;;1.67;;
38725;SDS011;24474;48.906;8.808;2022-11-23T07:38:34;6.60;;;1.45;;
38725;SDS011;24474;48.906;8.808;2022-11-23T07:41:00;7.35;;;1.60;;
38725;SDS011;24474;48.906;8.808;2022-11-23T07:43:27;5.00;;;1.40;;
38725;SDS011;24474;48.906;8.808;2022-11-23T07:45:56;6.18;;;2.08;;
38725;SDS011;24474;48.906;8.808;2022-11-23T07:48:22;6.95;;;1.60;;
38725;SDS011;24474;48.906;8.808;2022-11-23T07:50:52;6.63;;;1.73;;
38725;SDS011;24474;48.906;8.808;2022-11-23T07:53:18;4.47;;;1.40;;
38725;SDS011;24474;48.906;8.808;2022-11-23T07:55:44;6.32;;;1.80;;
38725;SDS011;24474;48.906;8.808;2022-11-23T07:58:10;5.38;;;1.52;;
38725;SDS011;24474;48.906;8.808;2022-11-23T08:00:37;5.18;;;1.65;;
38725;SDS011;24474;48.906;8.808;2022-11-23T08:03:02;4.45;;;1.60;;
38725;SDS011;24474;48.906;8.808;2022-11-23T08:05:31;5.03;;;1.25;;
38725;SDS011;24474;48.906;8.808;2022-11-23T08:07:58;5.38;;;1.40;;
38725;SDS011;24474;48.906;8.808;2022-11-23T08:10:25;6.10;;;1.60;;
38725;SDS011;24474;48.906;8.808;2022-11-23T08:12:51;10.00;;;2.13;;
38725;SDS011;24474;48.906;8.808;2022-11-23T08:15:17;12.60;;;5.18;;
38725;SDS011;24474;48.906;8.808;2022-11-23T08:17:42;11.60;;;3.70;;
38725;SDS011;24474;48.906;8.808;2022-11-23T08:20:08;8.05;;;2.22;;
38725;SDS011;24474;48.906;8.808;2022-11-23T08:22:34;9.57;;;1.90;;
38725;SDS011;24474;48.906;8.808;2022-11-23T08:25:00;5.80;;;2.05;;
38725;SDS011;24474;48.906;8.808;2022-11-23T08:27:25;5.15;;;1.67;;
38725;SDS011;24474;48.906;8.808;2022-11-23T08:29:51;5.57;;;1.60;;
38725;SDS011;24474;48.906;8.808;2022-11-23T08:32:17;10.10;;;2.60;;
38725;SDS011;24474;48.906;8.808;2022-11-23T08:34:42;8.70;;;2.55;;
38725;SDS011;24474;48.906;8.808;2022-11-23T08:37:08;9.80;;;2.00;;
38725;SDS011;24474;48.906;8.808;2022-11-23T08:39:34;7.88;;;1.83;;
38725;SDS011;24474;48.906;8.808;2022-11-23T08:42:00;6.00;;;1.80;;
38725;SDS011;24474;48.906;8.808;2022-11-23T08:44:26;7.35;;;1.65;;
38725;SDS011;24474;48.906;8.808;2022-11-23T08:46:51;4.25;;;1.50;;
38725;SDS011;24474;48.906;8.808;2022-11-23T08:49:17;9.27;;;2.10;;
38725;SDS011;24474;48.906;8.808;2022-11-23T08:51:42;8.45;;;1.98;;
38725;SDS011;24474;48.906;8.808;2022-11-23T08:54:08;9.70;;;1.80;;
38725;SDS011;24474;48.906;8.808;2022-11-23T08:56:34;6.63;;;2.00;;
38725;SDS011;24474;48.906;8.808;2022-11-23T08:58:59;11.13;;;2.20;;
38725;SDS011;24474;48.906;8.808;2022-11-23T09:01:25;7.38;;;2.05;;
38725;SDS011;24474;48.906;8.808;2022-11-23T09:03:50;7.53;;;1.70;;
38725;SDS011;24474;48.906;8.808;2022-11-23T09:06:18;5.85;;;1.45;;
38725;SDS011;24474;48.906;8.808;2022-11-23T09:08:44;9.65;;;1.92;;
38725;SDS011;24474;48.906;8.808;2022-11-23T09:11:11;6.07;;;1.65;;
38725;SDS011;24474;48.906;8.808;2022-11-23T09:13:38;5.38;;;1.95;;
38725;SDS011;24474;48.906;8.808;2022-11-23T09:16:04;8.00;;;2.03;;
38725;SDS011;24474;48.906;8.808;2022-11-23T09:18:31;11.60;;;2.40;;
38725;SDS011;24474;48.906;8.808;2022-11-23T09:21:00;6.35;;;1.70;;
38725;SDS011;24474;48.906;8.808;2022-11-23T09:23:28;8.70;;;2.20;;
38725;SDS011;24474;48.906;8.808;2022-11-23T09:25:56;5.38;;;1.80;;
38725;SDS011;24474;48.906;8.808;2022-11-23T09:28:23;10.73;;;1.90;;
38725;SDS011;24474;48.906;8.808;2022-11-23T09:30:48;7.32;;;1.60;;
38725;SDS011;24474;48.906;8.808;2022-11-23T09:33:14;7.95;;;1.75;;
38725;SDS011;24474;48.906;8.808;2022-11-23T09:35:40;8.77;;;1.50;;
38725;SDS011;24474;48.906;8.808;2022-11-23T09:38:06;5.40;;;1.85;;
38725;SDS011;24474;48.906;8.808;2022-11-23T09:40:34;8.48;;;2.20;;
38725;SDS011;24474;48.906;8.808;2022-11-23T09:45:49;6.93;;;2.03;;
38725;SDS011;24474;48.906;8.808;2022-11-23T09:51:30;6.03;;;2.13;;
38725;SDS011;24474;48.906;8.808;2022-11-23T09:53:59;8.30;;;1.85;;
38725;SDS011;24474;48.906;8.808;2022-11-23T09:56:29;7.78;;;2.20;;
38725;SDS011;24474;48.906;8.808;2022-11-23T09:58:58;7.28;;;2.10;;
38725;SDS011;24474;48.906;8.808;2022-11-23T10:01:27;7.65;;;2.00;;
38725;SDS011;24474;48.906;8.808;2022-11-23T10:03:54;9.27;;;2.80;;
38725;SDS011;24474;48.906;8.808;2022-11-23T10:06:28;8.95;;;2.13;;
38725;SDS011;24474;48.906;8.808;2022-11-23T10:25:24;5.47;;;2.00;;
38725;SDS011;24474;48.906;8.808;2022-11-23T10:27:59;5.70;;;1.77;;
38725;SDS011;24474;48.906;8.808;2022-11-23T10:30:35;7.63;;;1.77;;
38725;SDS011;24474;48.906;8.808;2022-11-23T10:35:34;7.43;;;2.53;;
38725;SDS011;24474;48.906;8.808;2022-11-23T10:38:15;8.60;;;1.88;;
38725;SDS011;24474;48.906;8.808;2022-11-23T10:40:56;5.55;;;2.25;;
38725;SDS011;24474;48.906;8.808;2022-11-23T10:43:37;9.32;;;2.70;;
38725;SDS011;24474;48.906;8.808;2022-11-23T10:51:50;7.15;;;1.63;;
38725;SDS011;24474;48.906;8.808;2022-11-23T10:54:24;7.45;;;2.03;;
38725;SDS011;24474;48.906;8.808;2022-11-23T10:59:55;4.95;;;1.67;;
38725;SDS011;24474;48.906;8.808;2022-11-23T11:02:26;6.22;;;1.60;;
38725;SDS011;24474;48.906;8.808;2022-11-23T11:07:57;6.47;;;1.80;;
38725;SDS011;24474;48.906;8.808;2022-11-23T11:10:32;6.72;;;1.63;;
38725;SDS011;24474;48.906;8.808;2022-11-23T11:13:30;7.07;;;1.58;;
38725;SDS011;24474;48.906;8.808;2022-11-23T11:16:02;5.80;;;1.40;;
38725;SDS011;24474;48.906;8.808;2022-11-23T11:18:34;4.30;;;1.40;;
38725;SDS011;24474;48.906;8.808;2022-11-23T11:23:42;4.60;;;1.53;;
38725;SDS011;24474;48.906;8.808;2022-11-23T11:26:17;4.40;;;1.30;;
38725;SDS011;24474;48.906;8.808;2022-11-23T11:28:50;4.85;;;1.25;;
38725;SDS011;24474;48.906;8.808;2022-11-23T11:34:16;5.47;;;1.60;;
38725;SDS011;24474;48.906;8.808;2022-11-23T11:39:43;4.50;;;1.52;;
38725;SDS011;24474;48.906;8.808;2022-11-23T11:42:19;4.47;;;1.38;;
38725;SDS011;24474;48.906;8.808;2022-11-23T11:44:51;7.55;;;1.73;;
38725;SDS011;24474;48.906;8.808;2022-11-23T11:50:02;4.43;;;1.48;;
38725;SDS011;24474;48.906;8.808;2022-11-23T11:52:42;5.68;;;1.30;;
38725;SDS011;24474;48.906;8.808;2022-11-23T11:55:14;2.38;;;0.95;;
38725;SDS011;24474;48.906;8.808;2022-11-23T11:57:48;3.72;;;1.40;;
38725;SDS011;24474;48.906;8.808;2022-11-23T12:00:26;3.90;;;1.25;;
38725;SDS011;24474;48.906;8.808;2022-11-23T12:05:49;3.92;;;1.25;;
38725;SDS011;24474;48.906;8.808;2022-11-23T12:11:00;3.67;;;1.40;;
38725;SDS011;24474;48.906;8.808;2022-11-23T12:19:09;3.90;;;1.50;;
38725;SDS011;24474;48.906;8.808;2022-11-23T12:24:25;1.60;;;1.00;;
38725;SDS011;24474;48.906;8.808;2022-11-23T12:26:58;3.75;;;1.42;;
38725;SDS011;24474;48.906;8.808;2022-11-23T12:29:39;5.20;;;1.55;;
38725;SDS011;24474;48.906;8.808;2022-11-23T12:34:56;5.03;;;1.63;;
38725;SDS011;24474;48.906;8.808;2022-11-23T12:40:47;5.50;;;2.00;;
38725;SDS011;24474;48.906;8.808;2022-11-23T12:49:35;5.30;;;2.00;;
38725;SDS011;24474;48.906;8.808;2022-11-23T12:57:30;4.18;;;1.80;;
38725;SDS011;24474;48.906;8.808;2022-11-23T13:00:13;4.20;;;1.60;;
38725;SDS011;24474;48.906;8.808;2022-11-23T13:21:50;5.90;;;2.47;;
38725;SDS011;24474;48.906;8.808;2022-11-23T13:24:37;5.32;;;2.15;;
38725;SDS011;24474;48.906;8.808;2022-11-23T13:40:30;5.25;;;2.20;;
38725;SDS011;24474;48.906;8.808;2022-11-23T13:43:02;5.05;;;2.42;;
38725;SDS011;24474;48.906;8.808;2022-11-23T13:45:32;7.25;;;2.22;;
38725;SDS011;24474;48.906;8.808;2022-11-23T13:50:29;5.30;;;2.20;;
38725;SDS011;24474;48.906;8.808;2022-11-23T13:52:55;7.10;;;2.33;;
38725;SDS011;24474;48.906;8.808;2022-11-23T13:55:26;7.68;;;2.40;;
38725;SDS011;24474;48.906;8.808;2022-11-23T14:00:52;6.97;;;3.20;;
38725;SDS011;24474;48.906;8.808;2022-11-23T14:06:33;9.80;;;3.35;;
38725;SDS011;24474;48.906;8.808;2022-11-23T14:09:16;7.00;;;3.20;;
38725;SDS011;24474;48.906;8.808;2022-11-23T14:12:33;5.55;;;2.17;;
38725;SDS011;24474;48.906;8.808;2022-11-23T14:14:49;7.03;;;2.83;;
38725;SDS011;24474;48.906;8.808;2022-11-23T14:26:13;6.90;;;2.95;;
38725;SDS011;24474;48.906;8.808;2022-11-23T14:28:56;7.32;;;2.60;;
38725;SDS011;24474;48.906;8.808;2022-11-23T14:41:08;6.35;;;2.65;;
38725;SDS011;24474;48.906;8.808;2022-11-23T14:43:42;5.28;;;2.50;;
38725;SDS011;24474;48.906;8.808;2022-11-23T14:46:17;5.45;;;1.98;;
38725;SDS011;24474;48.906;8.808;2022-11-23T14:48:45;7.93;;;2.17;;
38725;SDS011;24474;48.906;8.808;2022-11-23T14:51:13;4.15;;;2.17;;
38725;SDS011;24474;48.906;8.808;2022-11-23T14:53:43;6.05;;;2.05;;
38725;SDS011;24474;48.906;8.808;2022-11-23T14:56:32;7.90;;;3.00;;
38725;SDS011;24474;48.906;8.808;2022-11-23T15:01:47;4.80;;;1.98;;
38725;SDS011;24474;48.906;8.808;2022-11-23T15:04:36;3.22;;;1.60;;
38725;SDS011;24474;48.906;8.808;2022-11-23T15:07:16;4.93;;;2.03;;
38725;SDS011;24474;48.906;8.808;2022-11-23T15:12:27;5.00;;;1.80;;
38725;SDS011;24474;48.906;8.808;2022-11-23T15:15:14;7.30;;;2.20;;
38725;SDS011;24474;48.906;8.808;2022-11-23T15:17:49;5.38;;;2.33;;
38725;SDS011;24474;48.906;8.808;2022-11-23T15:20:21;4.50;;;2.22;;
38725;SDS011;24474;48.906;8.808;2022-11-23T15:22:50;6.90;;;2.05;;
38725;SDS011;24474;48.906;8.808;2022-11-23T15:25:16;4.90;;;1.90;;
38725;SDS011;24474;48.906;8.808;2022-11-23T15:27:44;4.75;;;1.50;;
38725;SDS011;24474;48.906;8.808;2022-11-23T15:32:43;5.10;;;1.65;;
38725;SDS011;24474;48.906;8.808;2022-11-23T15:35:19;4.43;;;1.63;;
38725;SDS011;24474;48.906;8.808;2022-11-23T15:37:47;3.97;;;1.48;;
38725;SDS011;24474;48.906;8.808;2022-11-23T15:40:14;5.32;;;1.33;;
38725;SDS011;24474;48.906;8.808;2022-11-23T15:42:45;4.22;;;1.20;;
38725;SDS011;24474;48.906;8.808;2022-11-23T15:48:19;4.30;;;1.60;;
38725;SDS011;24474;48.906;8.808;2022-11-23T15:50:51;2.60;;;1.40;;
38725;SDS011;24474;48.906;8.808;2022-11-23T15:53:31;2.78;;;1.85;;
38725;SDS011;24474;48.906;8.808;2022-11-23T15:56:12;3.30;;;1.20;;
38725;SDS011;24474;48.906;8.808;2022-11-23T15:58:44;5.13;;;1.60;;
38725;SDS011;24474;48.906;8.808;2022-11-23T16:01:12;2.92;;;1.83;;
38725;SDS011;24474;48.906;8.808;2022-11-23T16:06:34;2.85;;;1.55;;
38725;SDS011;24474;48.906;8.808;2022-11-23T16:08:58;4.60;;;1.60;;
38725;SDS011;24474;48.906;8.808;2022-11-23T16:16:37;5.88;;;1.50;;
38725;SDS011;24474;48.906;8.808;2022-11-23T16:19:03;4.88;;;1.60;;
38725;SDS011;24474;48.906;8.808;2022-11-23T16:22:03;4.63;;;1.50;;
38725;SDS011;24474;48.906;8.808;2022-11-23T16:24:31;4.57;;;1.65;;
38725;SDS011;24474;48.906;8.808;2022-11-23T16:26:58;7.43;;;1.80;;
38725;SDS011;24474;48.906;8.808;2022-11-23T16:29:25;4.10;;;2.00;;
38725;SDS011;24474;48.906;8.808;2022-11-23T16:31:59;4.63;;;1.77;;
38725;SDS011;24474;48.906;8.808;2022-11-23T16:34:27;3.88;;;1.55;;
38725;SDS011;24474;48.906;8.808;2022-11-23T16:36:53;3.70;;;1.40;;
38725;SDS011;24474;48.906;8.808;2022-11-23T16:39:23;4.15;;;1.75;;
38725;SDS011;24474;48.906;8.808;2022-11-23T16:41:52;3.70;;;1.63;;
38725;SDS011;24474;48.906;8.808;2022-11-23T16:44:18;3.75;;;1.92;;
38725;SDS011;24474;48.906;8.808;2022-11-23T16:46:44;4.20;;;1.90;;
38725;SDS011;24474;48.906;8.808;2022-11-23T16:49:15;4.18;;;1.70;;
38725;SDS011;24474;48.906;8.808;2022-11-23T16:51:42;3.95;;;1.80;;
38725;SDS011;24474;48.906;8.808;2022-11-23T16:54:08;4.32;;;1.90;;
38725;SDS011;24474;48.906;8.808;2022-11-23T16:56:34;4.82;;;2.33;;
38725;SDS011;24474;48.906;8.808;2022-11-23T16:59:00;5.97;;;3.33;;
38725;SDS011;24474;48.906;8.808;2022-11-23T17:01:26;5.18;;;2.60;;
38725;SDS011;24474;48.906;8.808;2022-11-23T17:03:54;13.02;;;7.93;;
38725;SDS011;24474;48.906;8.808;2022-11-23T17:06:19;12.25;;;7.18;;
38725;SDS011;24474;48.906;8.808;2022-11-23T17:08:49;7.72;;;4.40;;
38725;SDS011;24474;48.906;8.808;2022-11-23T17:11:17;5.43;;;3.53;;
38725;SDS011;24474;48.906;8.808;2022-11-23T17:13:45;7.68;;;4.25;;
38725;SDS011;24474;48.906;8.808;2022-11-23T17:16:16;7.93;;;4.65;;
38725;SDS011;24474;48.906;8.808;2022-11-23T17:18:43;7.15;;;4.10;;
38725;SDS011;24474;48.906;8.808;2022-11-23T17:21:09;7.15;;;3.95;;
38725;SDS011;24474;48.906;8.808;2022-11-23T17:23:35;8.38;;;3.50;;
38725;SDS011;24474;48.906;8.808;2022-11-23T17:26:05;8.30;;;3.03;;
38725;SDS011;24474;48.906;8.808;2022-11-23T17:28:32;4.95;;;2.22;;
38725;SDS011;24474;48.906;8.808;2022-11-23T17:30:59;4.97;;;2.35;;
38725;SDS011;24474;48.906;8.808;2022-11-23T17:33:27;5.85;;;2.47;;
38725;SDS011;24474;48.906;8.808;2022-11-23T17:35:54;4.05;;;1.75;;
38725;SDS011;24474;48.906;8.808;2022-11-23T17:38:23;4.45;;;1.70;;
38725;SDS011;24474;48.906;8.808;2022-11-23T17:40:50;5.72;;;1.90;;
38725;SDS011;24474;48.906;8.808;2022-11-23T17:43:16;4.55;;;1.70;;